Time;durP1;ratioP1;P1;durP2;ratioP2;P2;SDS_P1;SDS_P2;PMS_P1;PMS_P2;Temp;Humidity;BMP_temperature;BMP_pressure;BME280_temperature;BME280_humidity;BME280_pressure;Samples;Min_cycle;Max_cycle;Signal;HPM_P1;HPM_P2
2021/09/23 00:00:21;;;;;;;18.10;9.13;;;;;;;;;;5119577;28;20649;-58
2021/09/23 00:03:08;;;;;;;17.60;9.67;;;;;;;;;;5136570;28;20482;-52
2021/09/23 00:05:40;;;;;;;11.80;9.67;;;;;;;;;;5135672;28;20539;-57
2021/09/23 00:08:16;;;;;;;12.33;9.30;;;;;;;;;;5135972;28;20460;-61
2021/09/23 00:10:43;;;;;;;13.63;10.00;;;;;;;;;;5135728;28;20479;-56
2021/09/23 00:13:12;;;;;;;11.57;8.73;;;;;;;;;;5135544;28;20430;-59
2021/09/23 00:15:41;;;;;;;15.67;8.40;;;;;;;;;;5136433;28;20490;-59
2021/09/23 00:18:11;;;;;;;12.77;8.30;;;;;;;;;;5135965;28;20462;-58
2021/09/23 00:20:39;;;;;;;12.40;9.00;;;;;;;;;;5136156;28;20455;-54
2021/09/23 00:23:07;;;;;;;10.77;8.80;;;;;;;;;;5136267;28;20438;-54
2021/09/23 00:25:36;;;;;;;11.00;8.43;;;;;;;;;;5135287;28;20462;-55
2021/09/23 00:28:04;;;;;;;16.23;9.40;;;;;;;;;;5135986;28;20465;-57
2021/09/23 00:30:32;;;;;;;17.10;9.83;;;;;;;;;;5135883;28;20472;-56
2021/09/23 00:33:06;;;;;;;11.00;9.77;;;;;;;;;;5136197;28;20484;-60
2021/09/23 00:35:33;;;;;;;11.80;9.03;;;;;;;;;;5116259;28;20487;-59
2021/09/23 00:38:01;;;;;;;16.57;10.17;;;;;;;;;;5117935;28;20494;-59
2021/09/23 00:40:28;;;;;;;15.60;10.20;;;;;;;;;;5129163;28;20466;-58
2021/09/23 00:42:57;;;;;;;14.93;9.67;;;;;;;;;;5134331;28;20446;-64
2021/09/23 00:45:29;;;;;;;12.87;8.80;;;;;;;;;;5121447;28;20511;-55
2021/09/23 00:47:57;;;;;;;13.60;9.50;;;;;;;;;;5134921;28;20466;-60
2021/09/23 00:50:27;;;;;;;10.40;8.60;;;;;;;;;;5135300;28;20488;-62
2021/09/23 00:53:01;;;;;;;11.80;8.70;;;;;;;;;;5135495;28;20462;-54
2021/09/23 00:55:30;;;;;;;16.10;8.50;;;;;;;;;;5135710;28;20512;-57
2021/09/23 00:57:59;;;;;;;13.10;9.53;;;;;;;;;;5135409;28;20450;-59
2021/09/23 01:00:51;;;;;;;12.90;8.80;;;;;;;;;;5126524;28;20443;-57
2021/09/23 01:03:19;;;;;;;9.63;8.30;;;;;;;;;;5130191;28;20518;-60
2021/09/23 01:08:39;;;;;;;15.80;9.77;;;;;;;;;;5113703;28;20475;-53
2021/09/23 01:11:06;;;;;;;12.10;8.57;;;;;;;;;;5114569;28;20455;-61
2021/09/23 01:13:34;;;;;;;11.07;8.53;;;;;;;;;;5114729;28;20456;-61
2021/09/23 01:16:03;;;;;;;13.20;9.03;;;;;;;;;;5114632;28;20456;-57
2021/09/23 01:18:31;;;;;;;13.97;8.67;;;;;;;;;;5116699;28;20484;-61
2021/09/23 01:21:00;;;;;;;13.77;9.03;;;;;;;;;;5133837;28;20465;-61
2021/09/23 01:23:31;;;;;;;13.50;9.43;;;;;;;;;;5139103;28;20454;-61
2021/09/23 01:25:59;;;;;;;12.90;11.07;;;;;;;;;;5104324;28;20435;-60
2021/09/23 01:28:26;;;;;;;14.60;10.30;;;;;;;;;;5133089;28;20454;-57
2021/09/23 01:30:56;;;;;;;10.20;8.93;;;;;;;;;;5126675;28;20450;-57
2021/09/23 01:33:24;;;;;;;19.33;9.90;;;;;;;;;;5119229;28;20447;-62
2021/09/23 01:35:52;;;;;;;15.10;8.73;;;;;;;;;;5123086;28;20535;-60
2021/09/23 01:38:39;;;;;;;11.80;9.07;;;;;;;;;;5116535;28;20520;-57
2021/09/23 01:41:07;;;;;;;11.83;8.43;;;;;;;;;;5132337;28;20692;-61
2021/09/23 01:43:34;;;;;;;11.00;9.60;;;;;;;;;;5137859;28;20463;-61
2021/09/23 01:46:03;;;;;;;13.10;8.97;;;;;;;;;;5128502;28;20454;-55
2021/09/23 01:48:33;;;;;;;13.67;9.70;;;;;;;;;;5128752;28;20510;-62
2021/09/23 01:51:09;;;;;;;12.23;9.53;;;;;;;;;;5132050;28;20467;-57
2021/09/23 01:53:42;;;;;;;12.00;8.60;;;;;;;;;;5136854;28;20460;-63
2021/09/23 01:56:12;;;;;;;11.63;9.63;;;;;;;;;;5137073;28;20473;-60
2021/09/23 01:58:40;;;;;;;14.43;10.17;;;;;;;;;;5137691;28;20458;-60
2021/09/23 02:01:08;;;;;;;11.50;8.50;;;;;;;;;;5137585;28;20466;-60
2021/09/23 02:03:35;;;;;;;11.93;8.27;;;;;;;;;;5129568;28;20519;-59
2021/09/23 02:06:08;;;;;;;11.10;8.90;;;;;;;;;;5132265;28;20435;-61
2021/09/23 02:08:35;;;;;;;11.63;8.80;;;;;;;;;;5138620;28;20474;-57
2021/09/23 02:11:05;;;;;;;13.23;9.07;;;;;;;;;;5123547;28;20467;-60
2021/09/23 02:13:35;;;;;;;12.87;8.97;;;;;;;;;;5126576;28;20491;-61
2021/09/23 02:16:02;;;;;;;12.23;9.00;;;;;;;;;;5137934;28;20514;-57
2021/09/23 02:18:31;;;;;;;12.37;9.07;;;;;;;;;;5135385;28;20463;-57
2021/09/23 02:20:59;;;;;;;12.93;9.70;;;;;;;;;;5134283;28;20500;-58
2021/09/23 02:23:26;;;;;;;12.70;8.20;;;;;;;;;;5138407;28;20442;-62
2021/09/23 02:25:54;;;;;;;11.93;8.27;;;;;;;;;;5138588;28;20450;-61
2021/09/23 02:28:22;;;;;;;9.77;8.13;;;;;;;;;;5138488;28;20465;-58
2021/09/23 02:30:49;;;;;;;10.57;7.90;;;;;;;;;;5137833;28;20462;-52
2021/09/23 02:33:22;;;;;;;12.53;8.17;;;;;;;;;;5139115;28;20434;-59
2021/09/23 02:35:50;;;;;;;10.10;7.77;;;;;;;;;;5138720;28;20702;-53
2021/09/23 02:38:17;;;;;;;9.83;8.03;;;;;;;;;;5138742;28;20480;-55
2021/09/23 02:40:49;;;;;;;16.57;8.77;;;;;;;;;;5134065;28;20538;-56
2021/09/23 02:43:17;;;;;;;9.87;7.50;;;;;;;;;;5117478;28;20455;-61
2021/09/23 02:45:45;;;;;;;12.90;7.83;;;;;;;;;;5116922;28;20465;-61
2021/09/23 02:48:23;;;;;;;12.33;8.10;;;;;;;;;;5117974;28;20503;-59
2021/09/23 02:50:50;;;;;;;13.97;8.40;;;;;;;;;;5118555;28;20466;-62
2021/09/23 02:53:17;;;;;;;11.60;8.60;;;;;;;;;;5117727;28;20510;-57
2021/09/23 02:55:52;;;;;;;9.40;7.40;;;;;;;;;;5117773;28;20474;-61
2021/09/23 02:58:19;;;;;;;8.80;7.10;;;;;;;;;;5117904;28;20451;-47
2021/09/23 03:00:48;;;;;;;12.73;8.80;;;;;;;;;;5117964;28;20540;-55
2021/09/23 03:03:16;;;;;;;12.93;8.93;;;;;;;;;;5117726;28;20435;-62
2021/09/23 03:05:45;;;;;;;16.70;9.80;;;;;;;;;;5116938;28;20512;-58
2021/09/23 03:08:14;;;;;;;11.80;8.40;;;;;;;;;;5133822;28;20458;-59
2021/09/23 03:10:53;;;;;;;11.80;9.20;;;;;;;;;;5137396;28;20521;-53
2021/09/23 03:13:21;;;;;;;13.17;9.47;;;;;;;;;;5136671;28;20454;-57
2021/09/23 03:15:50;;;;;;;13.47;9.47;;;;;;;;;;5136891;28;20454;-59
2021/09/23 03:18:19;;;;;;;12.97;8.40;;;;;;;;;;5137500;28;20494;-63
2021/09/23 03:20:46;;;;;;;13.57;8.87;;;;;;;;;;5137227;28;20450;-51
2021/09/23 03:23:14;;;;;;;13.00;8.83;;;;;;;;;;5137059;28;20710;-60
2021/09/23 03:25:44;;;;;;;12.33;8.43;;;;;;;;;;5137467;28;20450;-59
2021/09/23 03:28:12;;;;;;;11.60;8.53;;;;;;;;;;5137328;28;20454;-59
2021/09/23 03:30:40;;;;;;;16.37;9.60;;;;;;;;;;5136868;28;20478;-59
2021/09/23 03:33:11;;;;;;;9.77;8.03;;;;;;;;;;5137260;28;20442;-57
2021/09/23 03:35:38;;;;;;;16.70;9.97;;;;;;;;;;5136650;28;20435;-57
2021/09/23 03:38:07;;;;;;;14.03;9.37;;;;;;;;;;5136730;28;20501;-61
2021/09/23 03:40:50;;;;;;;11.60;8.00;;;;;;;;;;5130105;28;20482;-59
2021/09/23 03:43:17;;;;;;;12.73;9.40;;;;;;;;;;5117113;28;20477;-57
2021/09/23 03:45:45;;;;;;;10.50;7.60;;;;;;;;;;5136176;28;20450;-59
2021/09/23 03:48:14;;;;;;;12.47;9.10;;;;;;;;;;5136655;28;20438;-58
2021/09/23 03:50:48;;;;;;;12.00;8.90;;;;;;;;;;5136359;28;20442;-59
2021/09/23 03:53:29;;;;;;;14.63;9.20;;;;;;;;;;5132155;28;20497;-60
2021/09/23 03:55:57;;;;;;;12.40;8.53;;;;;;;;;;5116793;28;20461;-59
2021/09/23 03:58:24;;;;;;;11.83;9.80;;;;;;;;;;5115146;28;20519;-61
2021/09/23 04:01:27;;;;;;;14.07;9.90;;;;;;;;;;5131768;28;20435;-61
2021/09/23 04:03:56;;;;;;;14.07;9.80;;;;;;;;;;5134400;28;20470;-62
2021/09/23 04:06:23;;;;;;;15.03;9.80;;;;;;;;;;5135996;28;20446;-60
2021/09/23 04:08:57;;;;;;;18.53;9.77;;;;;;;;;;5135625;28;20727;-62
2021/09/23 04:11:26;;;;;;;15.03;8.50;;;;;;;;;;5132858;28;20489;-62
2021/09/23 04:13:53;;;;;;;14.47;8.93;;;;;;;;;;5135437;28;20452;-59
2021/09/23 04:16:26;;;;;;;8.73;7.30;;;;;;;;;;5126106;28;20484;-59
2021/09/23 04:18:53;;;;;;;10.80;8.37;;;;;;;;;;5131138;28;20459;-57
2021/09/23 04:21:22;;;;;;;9.93;7.70;;;;;;;;;;5123599;28;20705;-57
2021/09/23 04:23:50;;;;;;;11.90;7.60;;;;;;;;;;5134950;28;20464;-56
2021/09/23 04:26:18;;;;;;;13.87;10.00;;;;;;;;;;5114305;28;20468;-60
2021/09/23 04:28:45;;;;;;;9.87;7.00;;;;;;;;;;5114601;28;20439;-55
2021/09/23 04:31:14;;;;;;;16.27;9.60;;;;;;;;;;5114704;28;20609;-59
2021/09/23 04:33:46;;;;;;;15.70;8.43;;;;;;;;;;5133108;28;20472;-60
2021/09/23 04:36:13;;;;;;;13.57;8.80;;;;;;;;;;5133935;28;20465;-58
2021/09/23 04:38:50;;;;;;;11.10;8.60;;;;;;;;;;5114349;28;20474;-60
2021/09/23 04:41:28;;;;;;;11.37;8.13;;;;;;;;;;5119171;28;20450;-56
2021/09/23 04:43:55;;;;;;;10.83;7.17;;;;;;;;;;5114956;28;20504;-59
2021/09/23 04:46:24;;;;;;;10.83;8.33;;;;;;;;;;5124552;28;20454;-56
2021/09/23 04:48:51;;;;;;;13.93;7.77;;;;;;;;;;5135653;28;20434;-57
2021/09/23 04:51:21;;;;;;;11.30;8.50;;;;;;;;;;5134937;28;20520;-60
2021/09/23 04:53:55;;;;;;;11.93;7.60;;;;;;;;;;5132356;28;20524;-57
2021/09/23 04:56:27;;;;;;;14.63;8.53;;;;;;;;;;5128409;28;20451;-58
2021/09/23 04:59:15;;;;;;;11.50;7.73;;;;;;;;;;5131944;28;20473;-66
2021/09/23 05:01:44;;;;;;;11.50;7.57;;;;;;;;;;5126002;28;20486;-60
2021/09/23 05:04:11;;;;;;;12.77;8.80;;;;;;;;;;5134675;28;20499;-57
2021/09/23 05:06:57;;;;;;;16.17;10.20;;;;;;;;;;5134920;28;20450;-50
2021/09/23 05:09:33;;;;;;;18.17;9.67;;;;;;;;;;5115654;28;20534;-59
2021/09/23 05:12:00;;;;;;;12.23;8.37;;;;;;;;;;5126680;28;20457;-61
2021/09/23 05:14:35;;;;;;;11.87;8.13;;;;;;;;;;5119749;28;20481;-60
2021/09/23 05:17:02;;;;;;;15.70;8.83;;;;;;;;;;5117824;28;20473;-56
2021/09/23 05:19:45;;;;;;;10.43;8.00;;;;;;;;;;5135020;28;20457;-61
2021/09/23 05:22:17;;;;;;;11.03;7.30;;;;;;;;;;5113487;28;20496;-59
2021/09/23 05:24:53;;;;;;;13.10;7.80;;;;;;;;;;5121689;28;20471;-59
2021/09/23 05:27:26;;;;;;;16.93;8.40;;;;;;;;;;5130910;28;20871;-56
2021/09/23 05:30:13;;;;;;;12.20;8.77;;;;;;;;;;5122278;28;20453;-58
2021/09/23 05:32:42;;;;;;;11.83;8.50;;;;;;;;;;5132883;28;20446;-61
2021/09/23 05:35:13;;;;;;;9.00;7.93;;;;;;;;;;5134244;28;20528;-60
2021/09/23 05:37:40;;;;;;;9.40;7.67;;;;;;;;;;5134642;28;20482;-63
2021/09/23 05:40:37;;;;;;;17.93;8.47;;;;;;;;;;5134077;28;20461;-62
2021/09/23 05:43:23;;;;;;;15.57;9.03;;;;;;;;;;5122892;28;20426;-61
2021/09/23 05:45:51;;;;;;;12.13;7.73;;;;;;;;;;5126660;28;20458;-60
2021/09/23 05:48:20;;;;;;;13.33;8.00;;;;;;;;;;5113524;28;20423;-64
2021/09/23 05:50:49;;;;;;;15.53;8.07;;;;;;;;;;5119324;28;20446;-60
2021/09/23 05:53:16;;;;;;;18.37;8.30;;;;;;;;;;5132973;28;20454;-51
2021/09/23 05:55:45;;;;;;;11.87;8.30;;;;;;;;;;5133353;28;20492;-61
2021/09/23 05:58:13;;;;;;;10.67;8.47;;;;;;;;;;5128853;28;20546;-59
2021/09/23 06:00:50;;;;;;;17.60;8.00;;;;;;;;;;5110701;28;20464;-58
2021/09/23 06:03:18;;;;;;;14.93;8.80;;;;;;;;;;5112765;28;20454;-56
2021/09/23 06:05:52;;;;;;;10.13;7.30;;;;;;;;;;5127739;28;20450;-60
2021/09/23 06:08:34;;;;;;;13.83;7.13;;;;;;;;;;5136278;28;20460;-57
2021/09/23 06:11:14;;;;;;;12.20;7.83;;;;;;;;;;5129641;28;20459;-55
2021/09/23 06:13:46;;;;;;;14.13;8.90;;;;;;;;;;5116194;28;20451;-58
2021/09/23 06:16:13;;;;;;;9.97;6.50;;;;;;;;;;5122017;28;20445;-60
2021/09/23 06:18:41;;;;;;;12.87;7.20;;;;;;;;;;5136497;28;20526;-55
2021/09/23 06:21:09;;;;;;;15.00;9.30;;;;;;;;;;5133611;28;20418;-54
2021/09/23 06:23:37;;;;;;;13.60;8.23;;;;;;;;;;5117046;28;20435;-56
2021/09/23 06:26:04;;;;;;;13.10;8.20;;;;;;;;;;5136521;28;20454;-60
2021/09/23 06:28:33;;;;;;;12.83;8.70;;;;;;;;;;5135871;28;20446;-57
2021/09/23 06:31:11;;;;;;;12.13;8.43;;;;;;;;;;5120392;28;20497;-59
2021/09/23 06:33:44;;;;;;;10.70;7.70;;;;;;;;;;5126949;28;20492;-60
2021/09/23 06:36:11;;;;;;;18.00;8.43;;;;;;;;;;5136086;28;20486;-67
2021/09/23 06:38:38;;;;;;;14.87;7.50;;;;;;;;;;5135791;28;20516;-60
2021/09/23 06:41:10;;;;;;;14.30;6.67;;;;;;;;;;5136538;28;20483;-56
2021/09/23 06:43:51;;;;;;;14.50;8.00;;;;;;;;;;5135707;28;20461;-54
2021/09/23 06:46:20;;;;;;;13.50;7.60;;;;;;;;;;5136510;28;20458;-60
2021/09/23 06:48:48;;;;;;;31.80;7.80;;;;;;;;;;5136359;28;20442;-60
2021/09/23 06:51:18;;;;;;;15.90;7.60;;;;;;;;;;5135159;28;20461;-55
2021/09/23 06:53:48;;;;;;;10.40;7.70;;;;;;;;;;5134831;28;20541;-57
2021/09/23 06:56:45;;;;;;;12.70;7.20;;;;;;;;;;5134303;28;20476;-60
2021/09/23 06:59:16;;;;;;;12.23;6.93;;;;;;;;;;5119085;28;20504;-59
2021/09/23 07:01:43;;;;;;;15.17;8.93;;;;;;;;;;5132242;28;20466;-57
2021/09/23 07:04:17;;;;;;;12.30;8.40;;;;;;;;;;5131239;28;20457;-60
2021/09/23 07:06:48;;;;;;;10.73;7.33;;;;;;;;;;5116669;28;20452;-61
2021/09/23 07:09:17;;;;;;;9.40;7.47;;;;;;;;;;5135555;28;20434;-61
2021/09/23 07:11:48;;;;;;;13.97;7.30;;;;;;;;;;5133681;28;20450;-58
2021/09/23 07:14:17;;;;;;;19.37;8.17;;;;;;;;;;5127476;28;20447;-59
2021/09/23 07:16:56;;;;;;;13.70;9.53;;;;;;;;;;5114164;28;20462;-58
2021/09/23 07:19:29;;;;;;;12.50;8.00;;;;;;;;;;5114850;28;20458;-55
2021/09/23 07:21:58;;;;;;;12.13;6.47;;;;;;;;;;5114565;28;20430;-57
2021/09/23 07:24:28;;;;;;;9.87;6.83;;;;;;;;;;5113386;28;20528;-55
2021/09/23 07:26:57;;;;;;;12.37;6.73;;;;;;;;;;5114277;28;20459;-60
2021/09/23 07:32:28;;;;;;;16.20;7.30;;;;;;;;;;5134209;28;20484;-60
2021/09/23 07:35:01;;;;;;;10.70;7.87;;;;;;;;;;5135027;28;20465;-59
2021/09/23 07:37:46;;;;;;;20.37;7.80;;;;;;;;;;5134643;28;20478;-61
2021/09/23 07:40:19;;;;;;;12.70;6.27;;;;;;;;;;5134755;28;20568;-61
2021/09/23 07:42:48;;;;;;;9.23;6.53;;;;;;;;;;5133643;28;20464;-60
2021/09/23 07:45:32;;;;;;;11.10;7.60;;;;;;;;;;5135815;28;20484;-64
2021/09/23 07:48:12;;;;;;;16.00;10.23;;;;;;;;;;5135226;28;20505;-58
2021/09/23 07:50:59;;;;;;;11.10;6.67;;;;;;;;;;5134802;28;20462;-59
2021/09/23 07:53:28;;;;;;;10.67;7.50;;;;;;;;;;5134482;28;20492;-60
2021/09/23 07:59:30;;;;;;;14.10;7.17;;;;;;;;;;5128881;28;20474;-59
2021/09/23 08:02:03;;;;;;;14.07;6.63;;;;;;;;;;5130938;28;20482;-58
2021/09/23 08:04:31;;;;;;;10.53;7.03;;;;;;;;;;5131958;28;20457;-57
2021/09/23 08:06:58;;;;;;;13.37;8.27;;;;;;;;;;5132849;28;20480;-57
2021/09/23 08:09:27;;;;;;;10.43;6.77;;;;;;;;;;5132787;28;20461;-58
2021/09/23 08:12:14;;;;;;;10.30;6.00;;;;;;;;;;5132432;28;20558;-58
2021/09/23 08:14:42;;;;;;;20.07;8.00;;;;;;;;;;5132809;28;20443;-56
2021/09/23 08:17:11;;;;;;;11.73;6.00;;;;;;;;;;5132115;28;20454;-58
2021/09/23 08:19:43;;;;;;;11.50;6.70;;;;;;;;;;5133599;28;20445;-57
2021/09/23 08:22:10;;;;;;;10.73;6.17;;;;;;;;;;5123308;28;20512;-60
2021/09/23 08:24:52;;;;;;;9.77;6.17;;;;;;;;;;5112559;28;20468;-54
2021/09/23 08:27:20;;;;;;;14.43;7.37;;;;;;;;;;5111756;28;20460;-57
2021/09/23 08:29:48;;;;;;;13.80;7.40;;;;;;;;;;5112994;28;20471;-58
2021/09/23 08:32:44;;;;;;;10.33;5.50;;;;;;;;;;5112251;28;20460;-54
2021/09/23 08:35:15;;;;;;;14.57;6.30;;;;;;;;;;5127471;28;20458;-61
2021/09/23 08:37:49;;;;;;;9.50;5.90;;;;;;;;;;5112798;28;20487;-50
2021/09/23 08:40:17;;;;;;;6.33;5.50;;;;;;;;;;5129899;28;20449;-53
2021/09/23 08:42:47;;;;;;;13.07;6.53;;;;;;;;;;5124547;28;20462;-59
2021/09/23 08:45:33;;;;;;;9.30;6.37;;;;;;;;;;5110737;28;20503;-59
2021/09/23 08:48:01;;;;;;;13.60;6.10;;;;;;;;;;5111521;28;20459;-51
2021/09/23 08:50:36;;;;;;;9.80;5.70;;;;;;;;;;5110380;28;20486;-57
2021/09/23 08:53:07;;;;;;;14.80;7.13;;;;;;;;;;5111095;28;20464;-61
2021/09/23 08:55:35;;;;;;;13.50;7.10;;;;;;;;;;5109758;28;20482;-60
2021/09/23 08:58:03;;;;;;;8.63;5.30;;;;;;;;;;5111532;28;20483;-60
2021/09/23 09:00:31;;;;;;;6.77;5.20;;;;;;;;;;5109685;28;20598;-57
2021/09/23 09:03:05;;;;;;;9.60;5.90;;;;;;;;;;5109721;28;21009;-58
2021/09/23 09:05:34;;;;;;;8.40;4.90;;;;;;;;;;5119493;28;20446;-58
2021/09/23 09:08:03;;;;;;;12.53;4.83;;;;;;;;;;5130513;28;20557;-59
2021/09/23 09:10:30;;;;;;;10.80;5.33;;;;;;;;;;5130640;28;20663;-54
2021/09/23 09:13:00;;;;;;;10.47;5.20;;;;;;;;;;5129529;28;20457;-59
2021/09/23 09:15:32;;;;;;;8.90;5.17;;;;;;;;;;5128315;28;20435;-58
2021/09/23 09:18:18;;;;;;;9.43;4.67;;;;;;;;;;5130614;28;20470;-60
2021/09/23 09:20:58;;;;;;;7.47;4.90;;;;;;;;;;5131504;28;20438;-58
2021/09/23 09:23:57;;;;;;;7.40;4.97;;;;;;;;;;5130263;28;20458;-59
2021/09/23 09:26:32;;;;;;;10.07;4.67;;;;;;;;;;5117911;28;20470;-64
2021/09/23 09:29:08;;;;;;;7.47;4.30;;;;;;;;;;5131270;28;20457;-59
2021/09/23 09:31:37;;;;;;;10.10;4.70;;;;;;;;;;5130171;28;20441;-61
2021/09/23 09:34:06;;;;;;;11.23;5.37;;;;;;;;;;5129856;28;20448;-59
2021/09/23 09:36:35;;;;;;;9.47;4.63;;;;;;;;;;5129979;28;20449;-61
2021/09/23 09:39:05;;;;;;;6.70;3.63;;;;;;;;;;5129806;28;20450;-56
2021/09/23 09:41:45;;;;;;;8.73;4.13;;;;;;;;;;5134189;28;20488;-62
2021/09/23 09:44:16;;;;;;;7.90;3.40;;;;;;;;;;5133108;28;20454;-58
2021/09/23 09:46:47;;;;;;;8.60;4.57;;;;;;;;;;5133850;28;20470;-57
2021/09/23 09:49:19;;;;;;;7.43;4.00;;;;;;;;;;5132582;28;20622;-59
2021/09/23 09:51:51;;;;;;;9.47;4.80;;;;;;;;;;5131814;28;20484;-53
2021/09/23 09:54:19;;;;;;;13.50;5.07;;;;;;;;;;5132182;28;20523;-58
2021/09/23 09:56:56;;;;;;;7.80;4.53;;;;;;;;;;5121890;28;20456;-55
2021/09/23 09:59:25;;;;;;;7.67;3.50;;;;;;;;;;5131658;28;20515;-58
2021/09/23 10:01:53;;;;;;;10.00;4.40;;;;;;;;;;5131101;28;20508;-55
2021/09/23 10:04:39;;;;;;;7.07;3.87;;;;;;;;;;5132644;28;20430;-54
2021/09/23 10:07:09;;;;;;;7.47;3.80;;;;;;;;;;5130233;28;20489;-54
2021/09/23 10:09:38;;;;;;;8.60;3.90;;;;;;;;;;5134477;28;20765;-58
2021/09/23 10:12:06;;;;;;;6.47;4.10;;;;;;;;;;5135961;28;20466;-59
2021/09/23 10:14:34;;;;;;;11.70;4.13;;;;;;;;;;5135168;28;20458;-59
2021/09/23 10:17:03;;;;;;;10.80;4.10;;;;;;;;;;5136084;28;20454;-59
2021/09/23 10:19:32;;;;;;;8.07;4.97;;;;;;;;;;5131900;28;20494;-58
2021/09/23 10:22:00;;;;;;;11.13;5.17;;;;;;;;;;5115591;28;20520;-58
2021/09/23 10:30:56;;;;;;;6.30;3.83;;;;;;;;;;5119937;28;20483;-59
2021/09/23 10:33:38;;;;;;;9.10;4.40;;;;;;;;;;5118740;28;20449;-59
2021/09/23 10:36:08;;;;;;;8.37;4.00;;;;;;;;;;5136612;28;20499;-55
2021/09/23 10:38:35;;;;;;;6.53;4.20;;;;;;;;;;5130940;28;20510;-58
2021/09/23 10:41:04;;;;;;;8.20;3.67;;;;;;;;;;5133331;28;20446;-61
2021/09/23 10:43:42;;;;;;;10.33;3.83;;;;;;;;;;5135836;28;20462;-57
2021/09/23 10:46:12;;;;;;;5.33;3.70;;;;;;;;;;5121873;28;20519;-61
2021/09/23 10:48:40;;;;;;;8.27;3.37;;;;;;;;;;5113775;28;20443;-55
2021/09/23 10:51:10;;;;;;;8.13;3.93;;;;;;;;;;5129455;28;20457;-59
2021/09/23 10:53:38;;;;;;;10.43;4.13;;;;;;;;;;5134888;28;20454;-58
2021/09/23 10:56:17;;;;;;;10.60;4.73;;;;;;;;;;5114863;28;20503;-59
2021/09/23 10:58:49;;;;;;;11.43;3.60;;;;;;;;;;5125682;28;20545;-56
2021/09/23 11:01:44;;;;;;;11.07;3.90;;;;;;;;;;5134490;28;20514;-58
2021/09/23 11:04:49;;;;;;;11.90;5.20;;;;;;;;;;5134133;28;20738;-59
2021/09/23 11:07:48;;;;;;;5.53;3.90;;;;;;;;;;5102256;28;20482;-59
2021/09/23 11:10:17;;;;;;;6.53;4.67;;;;;;;;;;5113752;28;20463;-55
2021/09/23 11:13:03;;;;;;;11.27;4.17;;;;;;;;;;5114726;28;20574;-60
2021/09/23 11:15:44;;;;;;;9.23;3.70;;;;;;;;;;5133521;28;20468;-61
2021/09/23 11:18:18;;;;;;;7.70;4.20;;;;;;;;;;5135057;28;20458;-56
2021/09/23 11:21:02;;;;;;;10.50;4.33;;;;;;;;;;5131860;28;20515;-61
2021/09/23 11:23:32;;;;;;;9.77;5.10;;;;;;;;;;5112792;28;20459;-60
2021/09/23 11:26:06;;;;;;;6.90;4.07;;;;;;;;;;5127518;28;20450;-57
2021/09/23 11:28:52;;;;;;;6.10;3.93;;;;;;;;;;5124679;28;20434;-61
2021/09/23 11:31:26;;;;;;;9.20;4.33;;;;;;;;;;5114194;28;20500;-53
2021/09/23 11:33:53;;;;;;;8.27;3.70;;;;;;;;;;5134925;28;20481;-54
2021/09/23 11:36:26;;;;;;;10.23;4.80;;;;;;;;;;5115578;28;20470;-60
2021/09/23 11:39:06;;;;;;;4.77;2.97;;;;;;;;;;5134697;28;20509;-59
2021/09/23 11:41:38;;;;;;;8.17;3.37;;;;;;;;;;5131187;28;20446;-59
2021/09/23 11:44:24;;;;;;;6.83;3.87;;;;;;;;;;5122435;28;20522;-58
2021/09/23 11:47:08;;;;;;;9.03;3.30;;;;;;;;;;5133021;28;20462;-55
2021/09/23 11:49:48;;;;;;;4.53;2.80;;;;;;;;;;5114897;28;20428;-54
2021/09/23 11:52:16;;;;;;;4.60;3.13;;;;;;;;;;5122159;28;20475;-59
2021/09/23 11:54:44;;;;;;;7.77;3.00;;;;;;;;;;5125364;28;20442;-58
2021/09/23 11:57:15;;;;;;;14.73;4.30;;;;;;;;;;5127437;28;20447;-60
2021/09/23 11:59:46;;;;;;;9.67;3.83;;;;;;;;;;5131891;28;20554;-52
2021/09/23 12:02:34;;;;;;;4.40;3.50;;;;;;;;;;5131876;28;20435;-53
2021/09/23 12:05:03;;;;;;;9.27;3.57;;;;;;;;;;5131487;28;20490;-60
2021/09/23 12:07:43;;;;;;;4.33;2.50;;;;;;;;;;5121308;28;20443;-55
2021/09/23 12:10:25;;;;;;;8.97;3.00;;;;;;;;;;5122432;28;20442;-61
2021/09/23 12:12:59;;;;;;;7.73;3.80;;;;;;;;;;5126193;28;20457;-60
2021/09/23 12:15:36;;;;;;;5.63;2.90;;;;;;;;;;5127536;28;20459;-57
2021/09/23 12:18:07;;;;;;;6.87;3.10;;;;;;;;;;5135611;28;20450;-57
2021/09/23 12:20:41;;;;;;;4.90;3.23;;;;;;;;;;5154401;27;20491;-61
2021/09/23 12:23:36;;;;;;;21.73;3.67;;;;;;;;;;5147412;27;20489;-58
2021/09/23 12:26:11;;;;;;;5.83;3.50;;;;;;;;;;5149704;27;20462;-56
2021/09/23 12:28:47;;;;;;;7.97;3.30;;;;;;;;;;5155192;27;20487;-58
2021/09/23 12:31:27;;;;;;;11.93;3.40;;;;;;;;;;5143404;27;20517;-59
2021/09/23 12:34:00;;;;;;;4.80;2.63;;;;;;;;;;5136994;28;20466;-63
2021/09/23 12:36:34;;;;;;;11.23;3.30;;;;;;;;;;5147664;27;20548;-59
2021/09/23 12:39:18;;;;;;;4.13;2.87;;;;;;;;;;5148354;27;20484;-60
2021/09/23 12:42:03;;;;;;;5.13;3.50;;;;;;;;;;5150301;27;20449;-59
2021/09/23 12:44:33;;;;;;;6.10;3.20;;;;;;;;;;5137801;27;20468;-59
2021/09/23 12:47:13;;;;;;;5.90;2.73;;;;;;;;;;5147116;27;20471;-55
2021/09/23 12:49:41;;;;;;;12.70;3.57;;;;;;;;;;5139771;27;20461;-61
2021/09/23 12:52:18;;;;;;;4.70;2.73;;;;;;;;;;5133831;28;20517;-60
2021/09/23 12:54:55;;;;;;;10.30;2.73;;;;;;;;;;5133076;28;20438;-58
2021/09/23 12:57:36;;;;;;;8.63;2.83;;;;;;;;;;5152132;27;20434;-60
2021/09/23 13:00:07;;;;;;;4.77;2.67;;;;;;;;;;5154541;27;20481;-57
2021/09/23 13:02:38;;;;;;;6.90;3.40;;;;;;;;;;5146630;28;20530;-58
2021/09/23 13:05:27;;;;;;;9.50;3.40;;;;;;;;;;5133107;28;20557;-58
2021/09/23 13:08:27;;;;;;;7.00;2.97;;;;;;;;;;5128090;28;20496;-56
2021/09/23 13:11:19;;;;;;;5.27;3.30;;;;;;;;;;5131827;28;20446;-56
2021/09/23 13:13:47;;;;;;;7.80;3.40;;;;;;;;;;5132738;28;20549;-59
2021/09/23 13:16:28;;;;;;;8.60;3.50;;;;;;;;;;5136251;28;20442;-57
2021/09/23 13:18:57;;;;;;;5.33;3.43;;;;;;;;;;5116195;28;20490;-60
2021/09/23 13:21:24;;;;;;;7.50;3.60;;;;;;;;;;5124572;28;20451;-59
2021/09/23 13:24:00;;;;;;;6.70;3.30;;;;;;;;;;5125361;28;20445;-56
2021/09/23 13:26:45;;;;;;;6.00;3.23;;;;;;;;;;5132178;28;20482;-55
2021/09/23 13:29:18;;;;;;;5.10;3.20;;;;;;;;;;5136864;28;20463;-60
2021/09/23 13:32:13;;;;;;;6.03;3.83;;;;;;;;;;5117397;28;20455;-59
2021/09/23 13:34:56;;;;;;;8.10;4.43;;;;;;;;;;5122611;28;20887;-60
2021/09/23 13:37:38;;;;;;;10.03;3.57;;;;;;;;;;5133034;28;20450;-61
2021/09/23 13:40:35;;;;;;;11.47;3.50;;;;;;;;;;5127644;28;20481;-54
2021/09/23 13:43:17;;;;;;;8.40;3.57;;;;;;;;;;5122459;28;20491;-55
2021/09/23 13:45:51;;;;;;;8.80;4.60;;;;;;;;;;5128177;28;20461;-55
2021/09/23 13:48:19;;;;;;;8.40;4.67;;;;;;;;;;5135829;28;20450;-60
2021/09/23 13:50:47;;;;;;;9.60;3.73;;;;;;;;;;5133821;28;20447;-57
2021/09/23 13:53:32;;;;;;;6.00;3.60;;;;;;;;;;5132114;28;20442;-59
2021/09/23 13:56:01;;;;;;;8.40;4.90;;;;;;;;;;5136241;28;20537;-51
2021/09/23 13:58:31;;;;;;;6.47;3.63;;;;;;;;;;5136380;28;20458;-59
2021/09/23 14:01:02;;;;;;;7.43;4.97;;;;;;;;;;5135478;28;20500;-57
2021/09/23 14:03:36;;;;;;;5.70;3.90;;;;;;;;;;5135639;28;20483;-58
2021/09/23 14:06:06;;;;;;;10.50;4.63;;;;;;;;;;5135965;28;20489;-59
2021/09/23 14:08:45;;;;;;;9.60;4.43;;;;;;;;;;5123892;28;20992;-61
2021/09/23 14:11:28;;;;;;;6.43;4.67;;;;;;;;;;5114139;28;20613;-61
2021/09/23 14:14:08;;;;;;;4.83;3.40;;;;;;;;;;5130331;28;20454;-57
2021/09/23 14:16:37;;;;;;;8.60;3.77;;;;;;;;;;5115256;28;20437;-55
2021/09/23 14:19:05;;;;;;;6.50;3.80;;;;;;;;;;5132881;28;20477;-57
2021/09/23 14:22:04;;;;;;;5.97;3.83;;;;;;;;;;5135824;28;20481;-59
2021/09/23 14:24:33;;;;;;;7.93;3.83;;;;;;;;;;5135994;28;20513;-58
2021/09/23 14:27:01;;;;;;;6.90;3.80;;;;;;;;;;5128149;28;20470;-55
2021/09/23 14:29:36;;;;;;;7.17;3.50;;;;;;;;;;5115762;28;20452;-55
2021/09/23 14:32:04;;;;;;;17.03;6.20;;;;;;;;;;5120027;28;20461;-55
2021/09/23 14:34:38;;;;;;;5.57;3.50;;;;;;;;;;5135247;28;20841;-60
2021/09/23 14:37:12;;;;;;;5.50;4.10;;;;;;;;;;5135274;28;20510;-59
2021/09/23 14:39:40;;;;;;;6.67;3.80;;;;;;;;;;5134027;28;20500;-60
2021/09/23 14:42:09;;;;;;;9.90;4.20;;;;;;;;;;5120470;28;20526;-61
2021/09/23 14:44:38;;;;;;;8.60;4.53;;;;;;;;;;5134967;28;20459;-59
2021/09/23 14:53:05;;;;;;;8.33;3.87;;;;;;;;;;5119595;28;20459;-58
2021/09/23 14:55:50;;;;;;;6.17;3.53;;;;;;;;;;5129873;28;20514;-59
2021/09/23 14:58:18;;;;;;;8.93;3.70;;;;;;;;;;5133479;28;20492;-58
2021/09/23 15:01:16;;;;;;;10.80;3.77;;;;;;;;;;5133269;28;20641;-60
2021/09/23 15:03:52;;;;;;;9.33;3.77;;;;;;;;;;5128754;28;20463;-57
2021/09/23 15:06:20;;;;;;;7.83;3.87;;;;;;;;;;5114671;28;20455;-57
2021/09/23 15:08:50;;;;;;;7.73;3.67;;;;;;;;;;5114531;28;20470;-60
2021/09/23 15:11:19;;;;;;;6.20;4.60;;;;;;;;;;5120136;28;20461;-60
2021/09/23 15:13:48;;;;;;;6.27;4.30;;;;;;;;;;5120680;28;20441;-61
2021/09/23 15:16:17;;;;;;;10.73;4.43;;;;;;;;;;5134752;28;20447;-58
2021/09/23 15:18:45;;;;;;;13.30;6.23;;;;;;;;;;5133778;28;20454;-59
2021/09/23 15:21:23;;;;;;;7.67;4.13;;;;;;;;;;5117869;28;20494;-55
2021/09/23 15:23:53;;;;;;;8.27;5.20;;;;;;;;;;5125373;28;20458;-60
2021/09/23 15:26:24;;;;;;;6.57;4.50;;;;;;;;;;5126210;28;20523;-57
2021/09/23 15:28:51;;;;;;;6.70;4.33;;;;;;;;;;5129704;28;20438;-60